ADDS METAR Data INFO
IDs: Format: Raw Decoded Include TAF

Data at: 0058 UTC 22 Oct 2017

KHQU 220035Z AUTO 00000KT 10SM CLR 16/13 A3033 RMK AO2 T01580132
KHQU 220015Z AUTO 00000KT 10SM CLR 16/13 A3033 RMK AO2 T01630134
KHQU 212355Z AUTO 00000KT 10SM CLR 17/14 A3033 RMK AO2 T01680136 10266 20168 402660065
KHQU 212335Z AUTO 00000KT 10SM CLR 18/14 A3032 RMK AO2 T01760138
KHQU 212315Z AUTO 00000KT 10SM CLR 19/14 A3032 RMK AO2 T01860137
KHQU 212255Z AUTO 00000KT 10SM CLR 20/14 A3032 RMK AO2 T01980137
KHQU 212235Z AUTO 00000KT 10SM CLR 21/13 A3032 RMK AO2 T02060132
KHQU 212215Z AUTO 00000KT 10SM CLR 22/13 A3032 RMK AO2 T02190130
KHQU 212155Z AUTO 16003KT 10SM CLR 23/12 A3031 RMK AO2 T02320122
KHQU 212135Z AUTO 17003KT 10SM CLR 24/11 A3031 RMK AO2 T02400114
KHQU 212115Z AUTO 19005KT 10SM CLR 25/11 A3031 RMK AO2 T02450111
KHQU 212055Z AUTO 15005KT 10SM CLR 25/11 A3031 RMK AO2 T02530105
KHQU 212030Z AUTO 16006KT 10SM CLR 25/10 A3030 RMK AO2 T02520105
KHQU 212015Z AUTO 15005KT 10SM CLR 26/11 A3030 RMK AO2 T02570105
KHQU 211955Z AUTO 19005KT 10SM CLR 26/10 A3030 RMK AO2 T02580097
KHQU 211935Z AUTO 17004KT 10SM CLR 26/08 A3030 RMK AO2 T02600083
KHQU 211915Z AUTO 15004KT 10SM CLR 26/08 A3030 RMK AO2 T02590080
KHQU 211855Z AUTO 20007KT 160V250 10SM CLR 26/09 A3031 RMK AO2 T02620093
KHQU 211835Z AUTO 14008KT 10SM CLR 26/11 A3031 RMK AO2 T02590105
KHQU 211815Z AUTO 20005KT 10SM CLR 25/10 A3031 RMK AO2 T02530101
KHQU 211755Z AUTO 16004KT 10SM CLR 24/12 A3032 RMK AO2 T02420123 10251 20069
KHQU 211730Z AUTO 20004KT 10SM CLR 24/12 A3033 RMK AO2 T02420116
KHQU 211715Z AUTO 18004KT 10SM CLR 24/13 A3034 RMK AO2 T02400128
KHQU 211655Z AUTO 15006KT 10SM CLR 24/12 A3035 RMK AO2 T02390125
KHQU 211635Z AUTO 14007KT 10SM CLR 23/13 A3035 RMK AO2 T02330133
KHQU 211615Z AUTO 17005KT 10SM CLR 23/14 A3036 RMK AO2 T02290136
KHQU 211555Z AUTO 14004KT 10SM CLR 23/15 A3036 RMK AO2 T02250148
KHQU 211535Z AUTO 15004KT 10SM CLR 22/16 A3037 RMK AO2 T02150157
KHQU 211515Z AUTO 00000KT 10SM CLR 21/15 A3037 RMK AO2 T02060148
KHQU 211455Z AUTO 00000KT 10SM CLR 19/14 A3037 RMK AO2 T01860141
KHQU 211435Z AUTO 36003KT 10SM CLR 18/13 A3037 RMK AO2 T01780131
KHQU 211415Z AUTO 00000KT 10SM CLR 17/13 A3037 RMK AO2 T01700126
KHQU 211355Z AUTO 00000KT 10SM CLR 16/11 A3037 RMK AO2 T01570114
KHQU 211335Z AUTO 00000KT 10SM CLR 13/10 A3037 RMK AO2 T01350104
KHQU 211315Z AUTO 00000KT 10SM SCT003 11/09 A3037 RMK AO2 T01150092
KHQU 211255Z AUTO 00000KT 10SM BKN003 10/08 A3036 RMK AO2 T01000081
KHQU 211235Z AUTO 00000KT 10SM SCT003 08/07 A3035 RMK AO2 T00840070
KHQU 211215Z AUTO 00000KT 10SM SCT003 08/06 A3034 RMK AO2 T00780061
KHQU 211155Z AUTO 00000KT 10SM CLR 07/06 A3033 RMK AO2 T00680060 10084 20065
KHQU 211135Z AUTO 00000KT 10SM SCT004 07/06 A3033 RMK AO2 T00670059
KHQU 211115Z AUTO 00000KT 10SM BKN004 07/06 A3033 RMK AO2 T00660059
KHQU 211055Z AUTO 00000KT 10SM SCT004 07/06 A3033 RMK AO2 T00700059
KHQU 211035Z AUTO 00000KT 10SM CLR 07/06 A3032 RMK AO2 T00670058
KHQU 211015Z AUTO 00000KT 10SM CLR 07/06 A3031 RMK AO2 T00680060
KHQU 210955Z AUTO 00000KT 10SM CLR 07/06 A3030 RMK AO2 T00670059
KHQU 210935Z AUTO 00000KT 10SM CLR 07/06 A3030 RMK AO2 T00690061
KHQU 210915Z AUTO 00000KT 10SM CLR 07/06 A3030 RMK AO2 T00690061
KHQU 210855Z AUTO 00000KT 10SM CLR 07/06 A3029 RMK AO2 T00700062
KHQU 210835Z AUTO 00000KT 10SM CLR 07/06 A3029 RMK AO2 T00730063
KHQU 210815Z AUTO 00000KT 10SM CLR 07/06 A3028 RMK AO2 T00730064
KHQU 210755Z AUTO 00000KT 10SM CLR 07/07 A3028 RMK AO2 T00750066
KHQU 210735Z AUTO 00000KT 10SM CLR 08/07 A3028 RMK AO2 T00780067
KHQU 210715Z AUTO 00000KT 10SM CLR 08/07 A3028 RMK AO2 T00780069
KHQU 210655Z AUTO 00000KT 10SM CLR 08/07 A3028 RMK AO2 T00780069
KHQU 210635Z AUTO 00000KT 10SM CLR 08/07 A3028 RMK AO2 T00800071
KHQU 210615Z AUTO 00000KT 10SM CLR 08/07 A3028 RMK AO2 T00830074
KHQU 210555Z AUTO 00000KT 10SM CLR 08/07 A3028 RMK AO2 T00840074 10150 20083
KHQU 210535Z AUTO 00000KT 10SM CLR 09/08 A3028 RMK AO2 T00860075
KHQU 210515Z AUTO 00000KT 10SM CLR 09/08 A3028 RMK AO2 T00880077
KHQU 210455Z AUTO 00000KT 10SM CLR 09/08 A3028 RMK AO2 T00900080
KHQU 210435Z AUTO 00000KT 10SM CLR 09/08 A3028 RMK AO2 T00930081
KHQU 210415Z AUTO 00000KT 10SM CLR 10/08 A3029 RMK AO2 T00970084
KHQU 210355Z AUTO 00000KT 10SM CLR 10/08 A3029 RMK AO2 T00970085
KHQU 210335Z AUTO 00000KT 10SM CLR 10/09 A3028 RMK AO2 T01020088
KHQU 210315Z AUTO 00000KT 10SM CLR 10/09 A3028 RMK AO2 T01050089
KHQU 210255Z AUTO 00000KT 10SM CLR 11/09 A3028 RMK AO2 T01080091
KHQU 210235Z AUTO 00000KT 10SM CLR 11/09 A3027 RMK AO2 T01110093
KHQU 210215Z AUTO 00000KT 10SM CLR 12/09 A3027 RMK AO2 T01150094
KHQU 210155Z AUTO 00000KT 10SM CLR 12/10 A3027 RMK AO2 T01190096
KHQU 210135Z AUTO 00000KT 10SM CLR 12/10 A3026 RMK AO2 T01230095
KHQU 210115Z AUTO 00000KT 10SM CLR 13/10 A3026 RMK AO2 T01270098
KHQU 210055Z AUTO 00000KT 10SM CLR 13/10 A3026 RMK AO2 T01300099
KHQU 210035Z AUTO 00000KT 10SM CLR 14/10 A3025 RMK AO2 T01360098
KHQU 210015Z AUTO 00000KT 10SM CLR 14/10 A3025 RMK AO2 T01420099
KHQU 202355Z AUTO 00000KT 10SM CLR 15/10 A3025 RMK AO2 T01500101 10267 20150 402670037
KHQU 202335Z AUTO 00000KT 10SM CLR 16/10 A3024 RMK AO2 T01610103
KHQU 202315Z AUTO 00000KT 10SM CLR 17/10 A3024 RMK AO2 T01710105
KHQU 202255Z AUTO 00000KT 10SM CLR 19/10 A3023 RMK AO2 T01870101
KHQU 202235Z AUTO 00000KT 10SM CLR 21/09 A3023 RMK AO2 T02090086
KHQU 202215Z AUTO 00000KT 10SM CLR 23/06 A3023 RMK AO2 T02340065
KHQU 202155Z AUTO 22003KT 10SM CLR 25/05 A3023 RMK AO2 T02520051
KHQU 202135Z AUTO 16003KT 10SM CLR 26/05 A3023 RMK AO2 T02580049
KHQU 202115Z AUTO 17004KT 10SM CLR 26/05 A3023 RMK AO2 T02620047
KHQU 202100Z AUTO 15004KT 10SM CLR 26/04 A3023 RMK AO2 T02620040
KHQU 202035Z AUTO 16003KT 10SM CLR 27/05 A3024 RMK AO2 T02660049
KHQU 201950Z AUTO 15008KT 110V170 10SM CLR 26/05 A3024 RMK AO2 T02640054
KHQU 201935Z AUTO 18003KT 10SM CLR 26/07 A3025 RMK AO2 T02590067
KHQU 201815Z AUTO 18004KT 10SM CLR 25/07 A3027 RMK AO2 T02460075
KHQU 201755Z AUTO 00000KT 10SM CLR 25/07 A3029 RMK AO2 T02490073 10253 20039
KHQU 201715Z AUTO 16005KT 10SM CLR 24/07 A3030 RMK AO2 T02440066
KHQU 201630Z AUTO 05004KT 10SM CLR 23/08 A3033 RMK AO2 T02260079
KHQU 201615Z AUTO 11004KT 10SM CLR 22/08 A3033 RMK AO2 T02200084
KHQU 201435Z AUTO 00000KT 10SM CLR 16/11 A3036 RMK AO2 T01620106
KHQU 201415Z AUTO 35003KT 10SM CLR 14/10 A3035 RMK AO2 T01450101
KHQU 201355Z AUTO 34003KT 10SM CLR 13/09 A3036 RMK AO2 T01300092
KHQU 201335Z AUTO 00000KT 10SM CLR 11/08 A3035 RMK AO2 T01140083
KHQU 201315Z AUTO 00000KT 10SM CLR 09/07 A3035 RMK AO2 T00950072